Time;durP1;ratioP1;P1;durP2;ratioP2;P2;SDS_P1;SDS_P2;PMS_P1;PMS_P2;Temp;Humidity;BMP_temperature;BMP_pressure;BME280_temperature;BME280_humidity;BME280_pressure;Samples;Min_cycle;Max_cycle;Signal;HPM_P1;HPM_P2
2023/10/04 00:00:16;;;;;;;;;;;;;;;;;;5113582;28;19962;-60
2023/10/04 00:02:43;;;;;;;;;;;;;;;;;;5113028;28;19964;-59
2023/10/04 00:05:08;;;;;;;;;;;;;;;;;;5114078;28;19916;-61
2023/10/04 00:07:33;;;;;;;;;;;;;;;;;;5112914;28;19965;-60
2023/10/04 00:10:04;;;;;;;;;;;;;;;;;;5113432;28;19923;-59
2023/10/04 00:12:29;;;;;;;;;;;;;;;;;;5114020;28;19970;-60
2023/10/04 00:14:54;;;;;;;;;;;;;;;;;;5113904;28;20008;-60
2023/10/04 00:17:20;;;;;;;;;;;;;;;;;;5113966;28;19911;-59
2023/10/04 00:19:47;;;;;;;;;;;;;;;;;;5113768;28;20296;-61
2023/10/04 00:22:12;;;;;;;;;;;;;;;;;;5112480;28;20421;-60
2023/10/04 00:24:38;;;;;;;;;;;;;;;;;;5113598;28;19915;-60
2023/10/04 00:27:04;;;;;;;;;;;;;;;;;;5112658;28;20032;-60
2023/10/04 00:29:30;;;;;;;;;;;;;;;;;;5113546;28;19922;-60
2023/10/04 00:31:55;;;;;;;;;;;;;;;;;;5113822;28;19912;-60
2023/10/04 00:34:21;;;;;;;;;;;;;;;;;;5113592;28;20313;-60
2023/10/04 00:36:46;;;;;;;;;;;;;;;;;;5112208;28;19912;-60
2023/10/04 00:39:13;;;;;;;;;;;;;;;;;;5113303;28;20432;-59
2023/10/04 00:41:40;;;;;;;;;;;;;;;;;;5113463;28;19912;-59
2023/10/04 00:44:06;;;;;;;;;;;;;;;;;;5113238;28;19969;-60
2023/10/04 00:46:35;;;;;;;;;;;;;;;;;;5112397;28;20396;-61
2023/10/04 00:49:00;;;;;;;;;;;;;;;;;;5111947;28;19924;-59
2023/10/04 00:51:26;;;;;;;;;;;;;;;;;;5113410;28;19911;-59
2023/10/04 00:53:53;;;;;;;;;;;;;;;;;;5111771;28;19934;-59
2023/10/04 00:56:18;;;;;;;;;;;;;;;;;;5111660;28;19908;-60
2023/10/04 00:58:45;;;;;;;;;;;;;;;;;;5113096;28;19916;-60
2023/10/04 01:01:11;;;;;;;;;;;;;;;;;;5112931;28;19955;-61
2023/10/04 01:03:37;;;;;;;;;;;;;;;;;;5111634;28;19977;-61
2023/10/04 01:06:03;;;;;;;;;;;;;;;;;;5112776;28;19964;-62
2023/10/04 01:08:30;;;;;;;;;;;;;;;;;;5111502;28;19923;-60
2023/10/04 01:10:56;;;;;;;;;;;;;;;;;;5111565;28;19911;-59
2023/10/04 01:13:26;;;;;;;;;;;;;;;;;;5110174;28;19923;-59
2023/10/04 01:15:55;;;;;;;;;;;;;;;;;;5111492;28;19920;-60
2023/10/04 01:18:20;;;;;;;;;;;;;;;;;;5111539;28;19911;-60
2023/10/04 01:20:46;;;;;;;;;;;;;;;;;;5112070;28;20304;-61
2023/10/04 01:23:13;;;;;;;;;;;;;;;;;;5111485;28;19908;-59
2023/10/04 01:25:38;;;;;;;;;;;;;;;;;;5111278;28;19923;-61
2023/10/04 01:28:07;;;;;;;;;;;;;;;;;;5112731;28;19911;-59
2023/10/04 01:30:33;;;;;;;;;;;;;;;;;;5112522;28;20291;-59
2023/10/04 01:33:02;;;;;;;;;;;;;;;;;;5112744;28;20006;-59
2023/10/04 01:35:27;;;;;;;;;;;;;;;;;;5111226;28;19915;-60
2023/10/04 01:37:53;;;;;;;;;;;;;;;;;;5094245;28;19964;-59
2023/10/04 01:40:19;;;;;;;;;;;;;;;;;;5111124;28;20035;-60
2023/10/04 01:42:45;;;;;;;;;;;;;;;;;;5094298;28;19911;-60
2023/10/04 01:45:11;;;;;;;;;;;;;;;;;;5094102;28;19922;-61
2023/10/04 01:47:36;;;;;;;;;;;;;;;;;;5112210;28;20407;-61
2023/10/04 01:50:02;;;;;;;;;;;;;;;;;;5112359;28;19916;-60
2023/10/04 01:52:30;;;;;;;;;;;;;;;;;;5109991;28;19927;-60
2023/10/04 01:54:55;;;;;;;;;;;;;;;;;;5111332;28;19963;-61
2023/10/04 01:57:21;;;;;;;;;;;;;;;;;;5112265;28;19959;-60
2023/10/04 01:59:46;;;;;;;;;;;;;;;;;;5093869;28;19996;-59
2023/10/04 02:02:11;;;;;;;;;;;;;;;;;;5109903;28;19935;-60
2023/10/04 02:04:37;;;;;;;;;;;;;;;;;;5110904;28;19960;-60
2023/10/04 02:07:03;;;;;;;;;;;;;;;;;;5112207;28;20297;-61
2023/10/04 02:09:28;;;;;;;;;;;;;;;;;;5110670;28;19958;-59
2023/10/04 02:11:54;;;;;;;;;;;;;;;;;;5112233;28;19907;-59
2023/10/04 02:14:19;;;;;;;;;;;;;;;;;;5110653;28;19924;-61
2023/10/04 02:16:44;;;;;;;;;;;;;;;;;;5112075;28;19912;-61
2023/10/04 02:19:10;;;;;;;;;;;;;;;;;;5100361;28;19912;-60
2023/10/04 02:21:37;;;;;;;;;;;;;;;;;;5090388;28;20014;-60
2023/10/04 02:24:03;;;;;;;;;;;;;;;;;;5075230;28;20079;-60
2023/10/04 02:26:31;;;;;;;;;;;;;;;;;;5095540;28;19908;-60
2023/10/04 02:28:57;;;;;;;;;;;;;;;;;;5111527;28;19915;-60
2023/10/04 02:31:22;;;;;;;;;;;;;;;;;;5114539;28;19923;-62
2023/10/04 02:33:50;;;;;;;;;;;;;;;;;;5114451;28;19930;-59
2023/10/04 02:36:15;;;;;;;;;;;;;;;;;;5097351;28;19965;-61
2023/10/04 02:38:40;;;;;;;;;;;;;;;;;;5115846;28;19916;-59
2023/10/04 02:41:06;;;;;;;;;;;;;;;;;;5115712;28;19912;-61
2023/10/04 02:43:32;;;;;;;;;;;;;;;;;;5115673;28;20423;-59
2023/10/04 02:45:58;;;;;;;;;;;;;;;;;;5114640;28;19980;-60
2023/10/04 02:48:24;;;;;;;;;;;;;;;;;;5114002;28;19947;-59
2023/10/04 02:50:49;;;;;;;;;;;;;;;;;;5114275;28;19916;-60
2023/10/04 02:53:24;;;;;;;;;;;;;;;;;;5114188;28;19965;-59
2023/10/04 02:55:54;;;;;;;;;;;;;;;;;;5114165;28;20382;-59
2023/10/04 02:58:20;;;;;;;;;;;;;;;;;;5114015;28;19918;-58
2023/10/04 03:00:49;;;;;;;;;;;;;;;;;;5097239;28;19992;-60
2023/10/04 03:03:19;;;;;;;;;;;;;;;;;;5114090;28;19912;-61
2023/10/04 03:05:47;;;;;;;;;;;;;;;;;;5114045;28;20391;-59
2023/10/04 03:08:12;;;;;;;;;;;;;;;;;;5113858;28;19911;-60
2023/10/04 03:10:37;;;;;;;;;;;;;;;;;;5115164;28;20468;-62
2023/10/04 03:13:12;;;;;;;;;;;;;;;;;;5113915;28;20077;-60
2023/10/04 03:15:37;;;;;;;;;;;;;;;;;;5115414;28;19915;-61
2023/10/04 03:18:13;;;;;;;;;;;;;;;;;;5113718;28;20018;-59
2023/10/04 03:20:42;;;;;;;;;;;;;;;;;;5113737;28;19944;-60
2023/10/04 03:23:08;;;;;;;;;;;;;;;;;;5114246;28;20238;-60
2023/10/04 03:25:34;;;;;;;;;;;;;;;;;;5113395;28;19922;-59
2023/10/04 03:27:59;;;;;;;;;;;;;;;;;;5113433;28;19934;-60
2023/10/04 03:30:24;;;;;;;;;;;;;;;;;;5112673;28;20384;-59
2023/10/04 03:32:55;;;;;;;;;;;;;;;;;;5096619;28;20514;-59
2023/10/04 03:35:26;;;;;;;;;;;;;;;;;;5112369;28;20377;-60
2023/10/04 03:38:01;;;;;;;;;;;;;;;;;;5113140;28;19911;-59
2023/10/04 03:40:37;;;;;;;;;;;;;;;;;;5113264;28;19915;-59
2023/10/04 03:43:09;;;;;;;;;;;;;;;;;;5113461;28;20036;-60
2023/10/04 03:45:41;;;;;;;;;;;;;;;;;;5112680;28;19937;-60
2023/10/04 03:48:10;;;;;;;;;;;;;;;;;;5113071;28;19927;-60
2023/10/04 03:50:35;;;;;;;;;;;;;;;;;;5113360;28;20269;-59
2023/10/04 03:53:01;;;;;;;;;;;;;;;;;;5114605;28;19924;-60
2023/10/04 03:55:26;;;;;;;;;;;;;;;;;;5113410;28;19915;-60
2023/10/04 03:57:52;;;;;;;;;;;;;;;;;;5112944;28;19916;-59
2023/10/04 04:00:17;;;;;;;;;;;;;;;;;;5112839;28;20300;-63
2023/10/04 04:02:43;;;;;;;;;;;;;;;;;;5114317;28;19911;-60
2023/10/04 04:05:14;;;;;;;;;;;;;;;;;;5112587;28;19915;-60
2023/10/04 04:07:39;;;;;;;;;;;;;;;;;;5079979;28;19920;-60
2023/10/04 04:10:07;;;;;;;;;;;;;;;;;;5073324;28;19939;-60
2023/10/04 04:12:34;;;;;;;;;;;;;;;;;;5072040;28;19920;-60
2023/10/04 04:15:00;;;;;;;;;;;;;;;;;;5071880;28;19927;-61
2023/10/04 04:17:25;;;;;;;;;;;;;;;;;;5072841;28;20389;-60
2023/10/04 04:19:52;;;;;;;;;;;;;;;;;;5071934;28;19916;-62
2023/10/04 04:22:23;;;;;;;;;;;;;;;;;;5072800;28;19966;-59
2023/10/04 04:24:49;;;;;;;;;;;;;;;;;;5071924;28;19959;-61
2023/10/04 04:27:18;;;;;;;;;;;;;;;;;;5074921;28;19959;-60
2023/10/04 04:29:44;;;;;;;;;;;;;;;;;;5093233;28;19923;-61
2023/10/04 04:32:10;;;;;;;;;;;;;;;;;;5088151;28;19912;-58
2023/10/04 04:34:39;;;;;;;;;;;;;;;;;;5054937;28;19920;-61
2023/10/04 04:37:08;;;;;;;;;;;;;;;;;;5071182;28;19912;-60
2023/10/04 04:39:33;;;;;;;;;;;;;;;;;;5071647;28;19916;-61
2023/10/04 04:42:00;;;;;;;;;;;;;;;;;;5072861;28;19912;-60
2023/10/04 04:44:33;;;;;;;;;;;;;;;;;;5071336;28;19920;-59
2023/10/04 04:46:59;;;;;;;;;;;;;;;;;;5071107;28;19981;-61
2023/10/04 04:49:25;;;;;;;;;;;;;;;;;;5072777;28;20297;-60
2023/10/04 04:51:50;;;;;;;;;;;;;;;;;;5054351;28;19913;-60
2023/10/04 04:54:18;;;;;;;;;;;;;;;;;;5070728;28;19920;-60
2023/10/04 04:56:43;;;;;;;;;;;;;;;;;;5070730;28;19912;-61
2023/10/04 04:59:14;;;;;;;;;;;;;;;;;;5071718;28;19921;-60
2023/10/04 05:01:40;;;;;;;;;;;;;;;;;;5054181;28;19916;-60
2023/10/04 05:04:07;;;;;;;;;;;;;;;;;;5080460;28;19923;-59
2023/10/04 05:06:32;;;;;;;;;;;;;;;;;;5081955;28;19916;-60
2023/10/04 05:08:58;;;;;;;;;;;;;;;;;;5082173;28;20302;-60
2023/10/04 05:11:26;;;;;;;;;;;;;;;;;;5079825;28;20276;-61
2023/10/04 05:13:52;;;;;;;;;;;;;;;;;;5080568;28;19928;-62
2023/10/04 05:16:17;;;;;;;;;;;;;;;;;;5082147;28;20018;-61
2023/10/04 05:18:43;;;;;;;;;;;;;;;;;;5080401;28;20453;-60
2023/10/04 05:21:10;;;;;;;;;;;;;;;;;;5073191;28;19916;-60
2023/10/04 05:23:36;;;;;;;;;;;;;;;;;;5071909;28;19917;-61
2023/10/04 05:26:01;;;;;;;;;;;;;;;;;;5071646;28;20381;-59
2023/10/04 05:28:27;;;;;;;;;;;;;;;;;;5097083;28;19918;-60
2023/10/04 05:30:53;;;;;;;;;;;;;;;;;;5111750;28;19918;-58
2023/10/04 05:33:18;;;;;;;;;;;;;;;;;;5112137;28;20014;-60
2023/10/04 05:35:44;;;;;;;;;;;;;;;;;;5112252;28;19962;-58
2023/10/04 05:38:14;;;;;;;;;;;;;;;;;;5111870;28;19915;-61
2023/10/04 05:40:39;;;;;;;;;;;;;;;;;;5070729;28;19916;-60
2023/10/04 05:43:05;;;;;;;;;;;;;;;;;;5069360;28;19916;-59
2023/10/04 05:45:31;;;;;;;;;;;;;;;;;;5071482;28;20450;-59
2023/10/04 05:47:57;;;;;;;;;;;;;;;;;;5070632;28;19920;-58
2023/10/04 05:50:23;;;;;;;;;;;;;;;;;;5071769;28;19947;-59
2023/10/04 05:52:48;;;;;;;;;;;;;;;;;;5071886;28;20361;-60
2023/10/04 05:55:14;;;;;;;;;;;;;;;;;;5071526;28;19925;-61
2023/10/04 05:57:39;;;;;;;;;;;;;;;;;;5070024;28;19912;-59
2023/10/04 06:00:51;;;;;;;;;;;;;;;;;;5069852;28;20041;-59
2023/10/04 06:02:53;;;;;;;;;;;;;;;;;;5061092;28;19924;-58
2023/10/04 06:05:19;;;;;;;;;;;;;;;;;;5071766;28;19916;-60
2023/10/04 06:07:44;;;;;;;;;;;;;;;;;;5070057;28;19963;-59
2023/10/04 06:10:11;;;;;;;;;;;;;;;;;;5071387;28;19916;-59
2023/10/04 06:12:36;;;;;;;;;;;;;;;;;;5071787;28;19970;-60
2023/10/04 06:15:02;;;;;;;;;;;;;;;;;;5071420;28;19947;-59
2023/10/04 06:17:29;;;;;;;;;;;;;;;;;;5071749;28;19912;-60
2023/10/04 06:19:54;;;;;;;;;;;;;;;;;;5069999;28;19923;-59
2023/10/04 06:22:19;;;;;;;;;;;;;;;;;;5071437;28;19916;-59
2023/10/04 06:24:45;;;;;;;;;;;;;;;;;;5071468;28;19917;-60
2023/10/04 06:27:11;;;;;;;;;;;;;;;;;;5076691;28;19951;-60
2023/10/04 06:29:36;;;;;;;;;;;;;;;;;;5111715;28;20381;-59
2023/10/04 06:32:03;;;;;;;;;;;;;;;;;;5106600;28;20519;-58
2023/10/04 06:34:28;;;;;;;;;;;;;;;;;;5090043;28;19927;-59
2023/10/04 06:36:53;;;;;;;;;;;;;;;;;;5088289;28;20003;-59
2023/10/04 06:39:19;;;;;;;;;;;;;;;;;;5080529;28;19982;-60
2023/10/04 06:41:44;;;;;;;;;;;;;;;;;;5081895;28;19923;-60
2023/10/04 06:44:10;;;;;;;;;;;;;;;;;;5083187;28;19911;-58
2023/10/04 06:46:36;;;;;;;;;;;;;;;;;;5073955;28;19919;-58
2023/10/04 06:49:02;;;;;;;;;;;;;;;;;;5070655;28;19970;-59
2023/10/04 06:51:27;;;;;;;;;;;;;;;;;;5070776;28;20006;-58
2023/10/04 06:53:53;;;;;;;;;;;;;;;;;;5070765;28;20436;-58
2023/10/04 06:56:18;;;;;;;;;;;;;;;;;;5070654;28;19912;-58
2023/10/04 06:58:43;;;;;;;;;;;;;;;;;;5076441;28;20014;-58
2023/10/04 07:01:10;;;;;;;;;;;;;;;;;;5079598;28;20398;-62
2023/10/04 07:03:35;;;;;;;;;;;;;;;;;;5080015;28;19931;-60
2023/10/04 07:06:00;;;;;;;;;;;;;;;;;;5079926;28;19923;-60
2023/10/04 07:08:32;;;;;;;;;;;;;;;;;;5079877;28;19916;-59
2023/10/04 07:11:00;;;;;;;;;;;;;;;;;;5079642;28;20014;-59
2023/10/04 07:13:25;;;;;;;;;;;;;;;;;;5085249;28;20332;-58
2023/10/04 07:15:51;;;;;;;;;;;;;;;;;;5083271;28;19951;-59
2023/10/04 07:18:16;;;;;;;;;;;;;;;;;;5083733;28;19912;-59
2023/10/04 07:20:42;;;;;;;;;;;;;;;;;;5084692;28;20311;-59
2023/10/04 07:23:07;;;;;;;;;;;;;;;;;;5064548;28;19924;-62
2023/10/04 07:25:32;;;;;;;;;;;;;;;;;;5083567;28;19923;-61
2023/10/04 07:27:58;;;;;;;;;;;;;;;;;;5085718;28;19919;-61
2023/10/04 07:30:25;;;;;;;;;;;;;;;;;;5081108;28;19916;-62
2023/10/04 07:32:50;;;;;;;;;;;;;;;;;;5084056;28;19920;-60
2023/10/04 07:35:19;;;;;;;;;;;;;;;;;;5083836;28;20010;-58
2023/10/04 07:37:44;;;;;;;;;;;;;;;;;;5080692;28;20298;-60
2023/10/04 07:40:10;;;;;;;;;;;;;;;;;;5083726;28;19923;-59
2023/10/04 07:42:35;;;;;;;;;;;;;;;;;;5083531;28;20365;-59
2023/10/04 07:45:00;;;;;;;;;;;;;;;;;;5089364;28;19920;-59
2023/10/04 07:47:26;;;;;;;;;;;;;;;;;;5088470;28;19927;-58
2023/10/04 07:49:51;;;;;;;;;;;;;;;;;;5089233;28;19927;-59
2023/10/04 07:52:16;;;;;;;;;;;;;;;;;;5082802;28;19912;-60
2023/10/04 07:54:42;;;;;;;;;;;;;;;;;;5082444;28;19924;-59
2023/10/04 07:57:09;;;;;;;;;;;;;;;;;;5068270;28;19915;-60
2023/10/04 07:59:36;;;;;;;;;;;;;;;;;;5092190;28;19969;-61
2023/10/04 08:02:03;;;;;;;;;;;;;;;;;;5086988;28;19912;-59
2023/10/04 08:04:29;;;;;;;;;;;;;;;;;;5088887;28;20288;-61
2023/10/04 08:06:54;;;;;;;;;;;;;;;;;;5092288;28;19912;-57
2023/10/04 08:09:21;;;;;;;;;;;;;;;;;;5093203;28;19915;-58
2023/10/04 08:11:46;;;;;;;;;;;;;;;;;;5092943;28;20425;-59
2023/10/04 08:14:12;;;;;;;;;;;;;;;;;;5079547;28;20030;-59
2023/10/04 08:16:37;;;;;;;;;;;;;;;;;;5072750;28;19912;-60
2023/10/04 08:19:04;;;;;;;;;;;;;;;;;;5070642;28;20054;-59
2023/10/04 08:21:29;;;;;;;;;;;;;;;;;;5070570;28;19913;-59
2023/10/04 08:23:55;;;;;;;;;;;;;;;;;;5071053;28;19923;-61
2023/10/04 08:26:22;;;;;;;;;;;;;;;;;;5071315;28;19913;-60
2023/10/04 08:28:48;;;;;;;;;;;;;;;;;;5086683;28;19965;-58
2023/10/04 08:31:18;;;;;;;;;;;;;;;;;;5089890;28;19912;-60
2023/10/04 08:33:43;;;;;;;;;;;;;;;;;;5084018;28;19924;-57
2023/10/04 08:36:11;;;;;;;;;;;;;;;;;;5055134;28;19912;-59
2023/10/04 08:38:41;;;;;;;;;;;;;;;;;;5092154;28;20456;-60
2023/10/04 08:41:07;;;;;;;;;;;;;;;;;;5084485;28;19912;-60
2023/10/04 08:43:32;;;;;;;;;;;;;;;;;;5080639;28;19920;-60
2023/10/04 08:45:57;;;;;;;;;;;;;;;;;;5081431;28;20340;-59
2023/10/04 08:48:26;;;;;;;;;;;;;;;;;;5081458;28;19920;-60
2023/10/04 08:50:52;;;;;;;;;;;;;;;;;;5072830;28;19926;-58
2023/10/04 08:53:17;;;;;;;;;;;;;;;;;;5072382;28;19916;-60
2023/10/04 08:55:51;;;;;;;;;;;;;;;;;;5071748;28;19942;-60
2023/10/04 08:58:20;;;;;;;;;;;;;;;;;;5070839;28;19999;-60
2023/10/04 09:00:45;;;;;;;;;;;;;;;;;;5072197;28;19931;-60
2023/10/04 09:03:10;;;;;;;;;;;;;;;;;;5072295;28;20417;-60
2023/10/04 09:05:36;;;;;;;;;;;;;;;;;;5071953;28;19916;-60
2023/10/04 09:08:04;;;;;;;;;;;;;;;;;;5072196;28;19913;-58
2023/10/04 09:10:36;;;;;;;;;;;;;;;;;;5069877;28;20305;-60
2023/10/04 09:13:03;;;;;;;;;;;;;;;;;;5072021;28;20027;-60
2023/10/04 09:15:48;;;;;;;;;;;;;;;;;;5071865;28;19958;-60
2023/10/04 09:18:32;;;;;;;;;;;;;;;;;;5071623;28;20504;-60
2023/10/04 09:20:57;;;;;;;;;;;;;;;;;;5071601;28;19962;-59
2023/10/04 09:23:31;;;;;;;;;;;;;;;;;;5072222;28;19909;-60
2023/10/04 09:26:00;;;;;;;;;;;;;;;;;;5071928;28;19916;-59
2023/10/04 09:28:31;;;;;;;;;;;;;;;;;;5084815;28;19997;-59
2023/10/04 09:31:05;;;;;;;;;;;;;;;;;;5091508;28;19993;-60
2023/10/04 09:33:34;;;;;;;;;;;;;;;;;;5089348;28;19924;-60
2023/10/04 09:35:59;;;;;;;;;;;;;;;;;;5091540;28;20011;-62
2023/10/04 09:38:25;;;;;;;;;;;;;;;;;;5090032;28;19994;-61
2023/10/04 09:40:51;;;;;;;;;;;;;;;;;;5091424;28;19916;-61
2023/10/04 09:43:16;;;;;;;;;;;;;;;;;;5089866;28;19912;-61
2023/10/04 09:45:42;;;;;;;;;;;;;;;;;;5091640;28;19923;-60
2023/10/04 09:48:07;;;;;;;;;;;;;;;;;;5091443;28;20377;-62
2023/10/04 09:50:33;;;;;;;;;;;;;;;;;;5091410;28;19957;-62
2023/10/04 09:52:58;;;;;;;;;;;;;;;;;;5089944;28;20309;-62
2023/10/04 09:55:24;;;;;;;;;;;;;;;;;;5091597;28;19915;-61
2023/10/04 09:57:49;;;;;;;;;;;;;;;;;;5091760;28;19912;-61
2023/10/04 10:00:18;;;;;;;;;;;;;;;;;;5090091;28;20035;-61
2023/10/04 10:02:43;;;;;;;;;;;;;;;;;;5091227;28;19916;-62
2023/10/04 10:05:09;;;;;;;;;;;;;;;;;;5091711;28;20442;-60
2023/10/04 10:07:34;;;;;;;;;;;;;;;;;;5091522;28;19922;-63
2023/10/04 10:10:01;;;;;;;;;;;;;;;;;;5091457;28;19916;-62
2023/10/04 10:12:31;;;;;;;;;;;;;;;;;;5091324;28;19994;-62
2023/10/04 10:14:56;;;;;;;;;;;;;;;;;;5091216;28;19920;-62
2023/10/04 10:17:21;;;;;;;;;;;;;;;;;;5091321;28;19916;-60
2023/10/04 10:19:47;;;;;;;;;;;;;;;;;;5089914;28;19962;-62
2023/10/04 10:22:15;;;;;;;;;;;;;;;;;;5089774;28;19968;-61
2023/10/04 10:24:44;;;;;;;;;;;;;;;;;;5091220;28;20375;-62
2023/10/04 10:27:10;;;;;;;;;;;;;;;;;;5093682;28;19919;-61
2023/10/04 10:29:36;;;;;;;;;;;;;;;;;;5111469;28;20296;-61
2023/10/04 10:32:02;;;;;;;;;;;;;;;;;;5111562;28;20348;-61
2023/10/04 10:34:28;;;;;;;;;;;;;;;;;;5111249;28;19924;-62
2023/10/04 10:36:54;;;;;;;;;;;;;;;;;;5111505;28;19908;-61
2023/10/04 10:39:20;;;;;;;;;;;;;;;;;;5111328;28;19915;-61
2023/10/04 10:41:45;;;;;;;;;;;;;;;;;;5111550;28;19988;-60
2023/10/04 10:44:10;;;;;;;;;;;;;;;;;;5111231;28;20372;-61
2023/10/04 10:46:35;;;;;;;;;;;;;;;;;;5114505;28;19918;-60
2023/10/04 10:49:01;;;;;;;;;;;;;;;;;;5114617;28;19924;-60
2023/10/04 10:51:26;;;;;;;;;;;;;;;;;;5080025;28;19916;-61
2023/10/04 10:53:52;;;;;;;;;;;;;;;;;;5072005;28;19928;-60
2023/10/04 10:56:17;;;;;;;;;;;;;;;;;;5072092;28;19913;-60
2023/10/04 10:58:42;;;;;;;;;;;;;;;;;;5071287;28;19917;-59
2023/10/04 11:01:08;;;;;;;;;;;;;;;;;;5073420;28;19920;-61
2023/10/04 11:03:33;;;;;;;;;;;;;;;;;;5073540;28;19917;-60
2023/10/04 11:05:59;;;;;;;;;;;;;;;;;;5073548;28;19912;-61
2023/10/04 11:08:25;;;;;;;;;;;;;;;;;;5074607;28;20026;-60
2023/10/04 11:10:50;;;;;;;;;;;;;;;;;;5074675;28;19923;-59
2023/10/04 11:13:18;;;;;;;;;;;;;;;;;;5072877;28;19920;-59
2023/10/04 11:15:44;;;;;;;;;;;;;;;;;;5074219;28;19916;-59
2023/10/04 11:18:10;;;;;;;;;;;;;;;;;;5072481;28;19912;-60
2023/10/04 11:20:37;;;;;;;;;;;;;;;;;;5074244;28;19965;-60
2023/10/04 11:23:03;;;;;;;;;;;;;;;;;;5074092;28;19913;-60
2023/10/04 11:25:29;;;;;;;;;;;;;;;;;;5074121;28;19924;-59
2023/10/04 11:27:54;;;;;;;;;;;;;;;;;;5077186;28;19957;-60
2023/10/04 11:30:23;;;;;;;;;;;;;;;;;;5073177;28;20015;-60
2023/10/04 11:32:49;;;;;;;;;;;;;;;;;;5073879;28;19923;-61
2023/10/04 11:35:15;;;;;;;;;;;;;;;;;;5073916;28;19916;-60
2023/10/04 11:37:40;;;;;;;;;;;;;;;;;;5074254;28;19920;-63
2023/10/04 11:40:05;;;;;;;;;;;;;;;;;;5072748;28;19919;-60
2023/10/04 11:42:31;;;;;;;;;;;;;;;;;;5073735;28;19912;-61
2023/10/04 11:44:56;;;;;;;;;;;;;;;;;;5073555;28;19928;-60
2023/10/04 11:47:22;;;;;;;;;;;;;;;;;;5073509;28;20445;-61
2023/10/04 11:49:47;;;;;;;;;;;;;;;;;;5073599;28;19916;-61
2023/10/04 11:52:12;;;;;;;;;;;;;;;;;;5073176;28;19912;-60
2023/10/04 11:54:38;;;;;;;;;;;;;;;;;;5071874;28;20023;-62
2023/10/04 11:57:03;;;;;;;;;;;;;;;;;;5072687;28;19908;-61
2023/10/04 11:59:28;;;;;;;;;;;;;;;;;;5073065;28;19920;-62
2023/10/04 12:01:55;;;;;;;;;;;;;;;;;;5073399;28;19912;-61
2023/10/04 12:04:23;;;;;;;;;;;;;;;;;;5071691;28;20358;-61
2023/10/04 12:06:49;;;;;;;;;;;;;;;;;;5073395;28;19912;-60
2023/10/04 12:09:23;;;;;;;;;;;;;;;;;;5072959;28;20029;-62
2023/10/04 12:11:49;;;;;;;;;;;;;;;;;;5073299;28;19919;-61
2023/10/04 12:14:15;;;;;;;;;;;;;;;;;;5072499;28;19924;-61
2023/10/04 12:16:43;;;;;;;;;;;;;;;;;;5073022;28;19919;-62
2023/10/04 12:19:08;;;;;;;;;;;;;;;;;;5072908;28;19916;-61
2023/10/04 12:21:35;;;;;;;;;;;;;;;;;;5073238;28;19908;-60
2023/10/04 12:24:02;;;;;;;;;;;;;;;;;;5072784;28;20005;-62
2023/10/04 12:26:33;;;;;;;;;;;;;;;;;;5072805;28;20001;-60
2023/10/04 12:29:19;;;;;;;;;;;;;;;;;;5075722;28;19923;-60
2023/10/04 12:31:45;;;;;;;;;;;;;;;;;;5072065;28;19920;-59
2023/10/04 12:34:10;;;;;;;;;;;;;;;;;;5070993;28;20389;-60
2023/10/04 12:36:38;;;;;;;;;;;;;;;;;;5072853;28;19957;-59
2023/10/04 12:39:06;;;;;;;;;;;;;;;;;;5071627;28;19917;-59
2023/10/04 12:41:32;;;;;;;;;;;;;;;;;;5070926;28;20369;-60
2023/10/04 12:43:57;;;;;;;;;;;;;;;;;;5053295;28;20011;-59
2023/10/04 12:46:22;;;;;;;;;;;;;;;;;;5072463;28;19916;-61
2023/10/04 12:48:48;;;;;;;;;;;;;;;;;;5072300;28;19931;-60
2023/10/04 12:51:14;;;;;;;;;;;;;;;;;;5072319;28;20455;-60
2023/10/04 12:53:40;;;;;;;;;;;;;;;;;;5072001;28;19931;-59
2023/10/04 12:56:07;;;;;;;;;;;;;;;;;;5072209;28;19919;-60
2023/10/04 12:58:33;;;;;;;;;;;;;;;;;;5071939;28;19927;-60
2023/10/04 13:00:58;;;;;;;;;;;;;;;;;;5070517;28;19912;-59
2023/10/04 13:03:24;;;;;;;;;;;;;;;;;;5043241;28;20114;-59
2023/10/04 13:05:49;;;;;;;;;;;;;;;;;;5069652;28;19916;-61
2023/10/04 13:08:20;;;;;;;;;;;;;;;;;;5070055;28;20331;-62
2023/10/04 13:10:47;;;;;;;;;;;;;;;;;;5072108;28;19916;-62
2023/10/04 13:13:12;;;;;;;;;;;;;;;;;;5072108;28;19924;-61
2023/10/04 13:15:37;;;;;;;;;;;;;;;;;;5071159;28;20340;-60
2023/10/04 13:18:06;;;;;;;;;;;;;;;;;;5071671;28;20278;-60
2023/10/04 13:20:32;;;;;;;;;;;;;;;;;;5071422;28;20420;-62
2023/10/04 13:22:58;;;;;;;;;;;;;;;;;;5071758;28;19952;-60
2023/10/04 13:25:23;;;;;;;;;;;;;;;;;;5070433;28;19923;-61
2023/10/04 13:27:49;;;;;;;;;;;;;;;;;;5073659;28;19919;-58
2023/10/04 13:30:15;;;;;;;;;;;;;;;;;;5071830;28;19916;-61
2023/10/04 13:32:41;;;;;;;;;;;;;;;;;;5069264;28;19908;-61
2023/10/04 13:35:06;;;;;;;;;;;;;;;;;;5072066;28;19916;-61
2023/10/04 13:37:31;;;;;;;;;;;;;;;;;;5071514;28;19924;-60
2023/10/04 13:39:57;;;;;;;;;;;;;;;;;;5070116;28;19924;-58
2023/10/04 13:42:22;;;;;;;;;;;;;;;;;;5068977;28;19923;-60
2023/10/04 13:44:47;;;;;;;;;;;;;;;;;;5071527;28;19916;-59
2023/10/04 13:47:15;;;;;;;;;;;;;;;;;;5071357;28;19918;-57
2023/10/04 13:49:40;;;;;;;;;;;;;;;;;;5071672;28;19929;-61
2023/10/04 13:52:05;;;;;;;;;;;;;;;;;;5070131;28;19921;-60
2023/10/04 13:54:31;;;;;;;;;;;;;;;;;;5071321;28;19928;-62
2023/10/04 13:56:57;;;;;;;;;;;;;;;;;;5071586;28;20497;-61
2023/10/04 13:59:23;;;;;;;;;;;;;;;;;;5071572;28;19927;-61
2023/10/04 14:01:49;;;;;;;;;;;;;;;;;;5070224;28;20373;-59
2023/10/04 14:04:16;;;;;;;;;;;;;;;;;;5070127;28;19997;-62
2023/10/04 14:06:41;;;;;;;;;;;;;;;;;;5071104;28;19912;-61
2023/10/04 14:09:18;;;;;;;;;;;;;;;;;;5070494;28;19920;-61
2023/10/04 14:11:43;;;;;;;;;;;;;;;;;;5071049;28;19958;-60
2023/10/04 14:14:09;;;;;;;;;;;;;;;;;;5069725;28;19955;-61
2023/10/04 14:16:34;;;;;;;;;;;;;;;;;;5071282;28;20262;-61
2023/10/04 14:19:00;;;;;;;;;;;;;;;;;;5071275;28;20028;-61
2023/10/04 14:21:26;;;;;;;;;;;;;;;;;;5075269;28;19912;-61
2023/10/04 14:23:51;;;;;;;;;;;;;;;;;;5075115;28;19916;-64
2023/10/04 14:26:17;;;;;;;;;;;;;;;;;;5075155;28;19927;-60
2023/10/04 14:28:43;;;;;;;;;;;;;;;;;;5103749;28;19919;-60
2023/10/04 14:31:08;;;;;;;;;;;;;;;;;;5075198;28;19935;-59
2023/10/04 14:33:33;;;;;;;;;;;;;;;;;;5073482;28;19928;-62
2023/10/04 14:35:59;;;;;;;;;;;;;;;;;;5074696;28;19912;-61
2023/10/04 14:38:24;;;;;;;;;;;;;;;;;;5074375;28;19916;-60
2023/10/04 14:40:50;;;;;;;;;;;;;;;;;;5070849;28;20417;-60
2023/10/04 14:43:15;;;;;;;;;;;;;;;;;;5073378;28;19947;-61
2023/10/04 14:45:40;;;;;;;;;;;;;;;;;;5074407;28;19916;-59
2023/10/04 14:48:06;;;;;;;;;;;;;;;;;;5074650;28;20438;-60
2023/10/04 14:50:33;;;;;;;;;;;;;;;;;;5074513;28;19923;-58
2023/10/04 14:52:58;;;;;;;;;;;;;;;;;;5074660;28;19920;-59
2023/10/04 14:55:24;;;;;;;;;;;;;;;;;;5073523;28;19991;-60
2023/10/04 14:57:49;;;;;;;;;;;;;;;;;;5074447;28;20379;-61
2023/10/04 15:00:20;;;;;;;;;;;;;;;;;;5074264;28;19986;-60
2023/10/04 15:02:45;;;;;;;;;;;;;;;;;;5074640;28;20361;-61
2023/10/04 15:05:10;;;;;;;;;;;;;;;;;;5073968;28;19966;-60
2023/10/04 15:07:36;;;;;;;;;;;;;;;;;;5074393;28;19951;-60
2023/10/04 15:10:02;;;;;;;;;;;;;;;;;;5074283;28;20003;-59
2023/10/04 15:12:29;;;;;;;;;;;;;;;;;;5074247;28;19944;-60
2023/10/04 15:14:54;;;;;;;;;;;;;;;;;;5074050;28;19979;-61
2023/10/04 15:17:19;;;;;;;;;;;;;;;;;;5073991;28;19958;-60
2023/10/04 15:19:45;;;;;;;;;;;;;;;;;;5074054;28;19916;-61
2023/10/04 15:22:11;;;;;;;;;;;;;;;;;;5072600;28;19971;-62
2023/10/04 15:24:37;;;;;;;;;;;;;;;;;;5055772;28;19916;-62
2023/10/04 15:27:03;;;;;;;;;;;;;;;;;;5074940;28;19916;-64
2023/10/04 15:29:29;;;;;;;;;;;;;;;;;;5092686;28;20022;-61
2023/10/04 15:31:54;;;;;;;;;;;;;;;;;;5092852;28;19908;-60
2023/10/04 15:34:19;;;;;;;;;;;;;;;;;;5093835;28;20018;-62
2023/10/04 15:36:45;;;;;;;;;;;;;;;;;;5094179;28;20419;-60
2023/10/04 15:42:12;;;;;;;;;;;;;;;;;;5051267;28;20330;-62
2023/10/04 15:44:38;;;;;;;;;;;;;;;;;;5085217;28;19916;-61
2023/10/04 15:47:05;;;;;;;;;;;;;;;;;;5093954;28;19912;-64
2023/10/04 15:49:30;;;;;;;;;;;;;;;;;;5093542;28;19965;-62
2023/10/04 15:51:55;;;;;;;;;;;;;;;;;;5093517;28;19947;-61
2023/10/04 15:54:21;;;;;;;;;;;;;;;;;;5093523;28;20347;-60
2023/10/04 15:56:46;;;;;;;;;;;;;;;;;;5093663;28;19923;-61
2023/10/04 15:59:11;;;;;;;;;;;;;;;;;;5090102;28;19923;-61
2023/10/04 16:01:37;;;;;;;;;;;;;;;;;;5081867;28;19913;-60
2023/10/04 16:04:02;;;;;;;;;;;;;;;;;;5084021;28;19965;-65
2023/10/04 16:06:27;;;;;;;;;;;;;;;;;;5081026;28;19962;-63
2023/10/04 16:08:53;;;;;;;;;;;;;;;;;;5081970;28;19916;-62
2023/10/04 16:11:18;;;;;;;;;;;;;;;;;;5082928;28;19912;-62
2023/10/04 16:13:44;;;;;;;;;;;;;;;;;;5079494;28;19931;-60
2023/10/04 16:16:09;;;;;;;;;;;;;;;;;;5072764;28;19944;-61
2023/10/04 16:18:35;;;;;;;;;;;;;;;;;;5072864;28;19917;-62
2023/10/04 16:21:00;;;;;;;;;;;;;;;;;;5075863;28;19961;-61
2023/10/04 16:23:26;;;;;;;;;;;;;;;;;;5082602;28;20007;-60
2023/10/04 16:25:51;;;;;;;;;;;;;;;;;;5081159;28;20446;-60
2023/10/04 16:28:16;;;;;;;;;;;;;;;;;;5085467;28;19912;-59
2023/10/04 16:30:42;;;;;;;;;;;;;;;;;;5084795;28;19920;-60
2023/10/04 16:33:07;;;;;;;;;;;;;;;;;;5079619;28;19920;-62
2023/10/04 16:35:32;;;;;;;;;;;;;;;;;;5086073;28;19927;-61
2023/10/04 16:37:58;;;;;;;;;;;;;;;;;;5085014;28;19934;-59
2023/10/04 16:40:23;;;;;;;;;;;;;;;;;;5082050;28;20293;-60
2023/10/04 16:42:48;;;;;;;;;;;;;;;;;;5081521;28;20284;-59